createdAt,value
2022-12-27T00:00:49.934Z,97766.34
2022-12-27T00:05:51.849Z,97777.03
2022-12-27T00:10:53.533Z,97791.47
2022-12-27T00:15:55.169Z,97810.41
2022-12-27T00:21:01.205Z,97852.03
2022-12-27T00:26:12.847Z,97844.09
2022-12-27T00:31:15.562Z,97842.91
2022-12-27T00:36:22.701Z,97846.44
2022-12-27T00:41:24.848Z,97854.72
2022-12-27T00:46:26.858Z,97845.56
2022-12-27T00:51:28.732Z,97857.06
2022-12-27T00:56:31.017Z,97869.31
2022-12-27T01:01:36.102Z,97897.34
2022-12-27T01:06:38.189Z,97901.44
2022-12-27T01:11:41.663Z,97903.88
2022-12-27T01:16:43.698Z,97917.09
2022-12-27T01:21:45.428Z,97924.31
2022-12-27T01:26:47.236Z,97928.50
2022-12-27T01:31:50.069Z,97934.41
2022-12-27T01:36:51.855Z,97926.47
2022-12-27T01:42:12.384Z,97950.28
2022-12-27T01:47:20.726Z,97947.56
2022-12-27T01:52:26.215Z,97960.72
2022-12-27T01:57:28.686Z,97964.06
2022-12-27T02:02:30.911Z,97973.31
2022-12-27T02:07:53.066Z,97979.78
2022-12-27T02:12:55.363Z,98001.03
2022-12-27T02:17:57.289Z,98005.31
2022-12-27T02:23:40.154Z,98033.88
2022-12-27T02:29:04.615Z,98041.72
2022-12-27T02:34:15.712Z,98036.53
2022-12-27T02:39:20.569Z,98043.94
2022-12-27T02:44:41.420Z,98062.16
2022-12-27T02:50:02.842Z,98057.16
2022-12-27T02:55:26.219Z,98066.84
2022-12-27T03:00:53.781Z,98078.16
2022-12-27T03:06:32.644Z,98077.78
2022-12-27T03:12:10.085Z,98089.69
2022-12-27T03:17:23.475Z,98105.78
2022-12-27T03:22:47.482Z,98121.34
2022-12-27T03:28:12.011Z,98143.81
2022-12-27T03:33:13.939Z,98151.56
2022-12-27T03:38:16.211Z,98149.53
2022-12-27T03:43:18.003Z,98172.53
2022-12-27T03:48:26.231Z,98164.00
2022-12-27T03:53:37.599Z,98184.25
2022-12-27T03:58:39.414Z,98185.72
2022-12-27T04:03:41.214Z,98192.59
2022-12-27T04:09:01.428Z,98200.53
2022-12-27T04:14:22.100Z,98199.91
2022-12-27T04:19:42.800Z,98205.13
2022-12-27T04:25:03.316Z,98201.16
2022-12-27T04:30:24.558Z,98206.59
2022-12-27T04:35:26.339Z,98207.59
2022-12-27T04:40:47.488Z,98213.25
2022-12-27T04:46:08.132Z,98220.97
2022-12-27T04:51:28.751Z,98236.22
2022-12-27T04:56:30.506Z,98235.19
2022-12-27T05:01:50.911Z,98243.09
2022-12-27T05:06:53.440Z,98237.03
2022-12-27T05:12:13.824Z,98239.75
2022-12-27T05:17:15.440Z,98243.50
2022-12-27T05:22:35.833Z,98253.28
2022-12-27T05:27:37.540Z,98260.59
2022-12-27T05:32:39.207Z,98260.19
2022-12-27T05:37:40.834Z,98261.84
2022-12-27T05:42:42.741Z,98260.59
2022-12-27T05:47:44.763Z,98252.63
2022-12-27T05:52:46.605Z,98253.03
2022-12-27T05:57:48.243Z,98264.28
2022-12-27T06:02:50.296Z,98267.66
2022-12-27T06:07:52.018Z,98267.66
2022-12-27T06:12:53.847Z,98270.97
2022-12-27T06:17:55.767Z,98270.56
2022-12-27T06:22:59.827Z,98281.44
2022-12-27T06:28:01.509Z,98281.22
2022-12-27T06:33:03.241Z,98283.09
2022-12-27T06:38:04.946Z,98296.03
2022-12-27T06:43:06.589Z,98302.75
2022-12-27T06:48:08.313Z,98312.31
2022-12-27T06:53:10.041Z,98304.38
2022-12-27T06:58:13.455Z,98311.47
2022-12-27T07:03:15.185Z,98316.66
2022-12-27T07:08:17.327Z,98325.00
2022-12-27T07:13:19.393Z,98318.09
2022-12-27T07:18:21.253Z,98311.63
2022-12-27T07:23:22.897Z,98316.44
2022-12-27T07:28:24.741Z,98323.13
2022-12-27T07:33:26.421Z,98330.63
2022-12-27T07:38:28.221Z,98323.97
2022-12-27T07:43:31.080Z,98329.81
2022-12-27T07:48:34.308Z,98332.13
2022-12-27T07:53:36.213Z,98341.94
2022-12-27T07:58:43.370Z,98338.81
2022-12-27T08:03:46.530Z,98339.03
2022-12-27T08:08:49.798Z,98333.19
2022-12-27T08:13:51.467Z,98341.97
2022-12-27T08:18:53.232Z,98345.75
2022-12-27T08:23:54.884Z,98347.84
2022-12-27T08:28:56.762Z,98351.22
2022-12-27T08:33:59.802Z,98362.09
2022-12-27T08:39:01.493Z,98352.50
2022-12-27T08:44:03.182Z,98358.38
2022-12-27T08:49:05.195Z,98355.44
2022-12-27T08:54:07.085Z,98367.56
2022-12-27T08:59:08.762Z,98365.53
2022-12-27T09:04:10.706Z,98375.13
2022-12-27T09:09:13.217Z,98373.25
2022-12-27T09:14:14.869Z,98373.06
2022-12-27T09:19:16.584Z,98377.03
2022-12-27T09:24:18.198Z,98392.09
2022-12-27T09:29:19.896Z,98403.00
2022-12-27T09:34:21.601Z,98409.69
2022-12-27T09:39:23.261Z,98410.72
2022-12-27T09:44:36.371Z,98407.34
2022-12-27T09:49:49.069Z,98400.63
2022-12-27T09:55:04.998Z,98380.16
2022-12-27T10:00:34.684Z,98379.91
2022-12-27T10:05:39.529Z,98385.56
2022-12-27T10:10:58.837Z,98372.75
2022-12-27T10:16:07.492Z,98363.75
2022-12-27T10:21:27.854Z,98367.72
2022-12-27T10:26:29.511Z,98368.34
2022-12-27T10:31:32.446Z,98358.28
2022-12-27T10:36:34.411Z,98368.72
2022-12-27T10:41:50.336Z,98367.44
2022-12-27T10:46:55.132Z,98368.66
2022-12-27T10:52:08.990Z,98380.34
2022-12-27T10:57:33.504Z,98394.09
2022-12-27T11:02:48.392Z,98378.56
2022-12-27T11:07:50.300Z,98385.66
2022-12-27T11:13:02.994Z,98362.19
2022-12-27T11:18:12.039Z,98374.34
2022-12-27T11:23:16.784Z,98368.91
2022-12-27T11:28:40.256Z,98353.88
2022-12-27T11:33:47.497Z,98352.59
2022-12-27T11:38:50.556Z,98342.31
2022-12-27T11:43:57.611Z,98328.16
2022-12-27T11:49:03.495Z,98317.72
2022-12-27T11:54:26.116Z,98320.03
2022-12-27T12:00:01.653Z,98322.09
2022-12-27T12:05:27.182Z,98313.69
2022-12-27T12:10:52.080Z,98317.38
2022-12-27T12:16:19.479Z,98311.47
2022-12-27T12:21:53.612Z,98315.25
2022-12-27T12:27:10.524Z,98309.75
2022-12-27T12:32:36.660Z,98308.44
2022-12-27T12:38:03.511Z,98300.00
2022-12-27T12:43:37.619Z,98299.03
2022-12-27T12:49:01.237Z,98291.84
2022-12-27T12:54:13.278Z,98291.09
2022-12-27T12:59:51.088Z,98291.44
2022-12-27T13:05:18.765Z,98289.16
2022-12-27T13:10:42.354Z,98286.59
2022-12-27T13:16:13.726Z,98286.59
2022-12-27T13:21:46.754Z,98274.25
2022-12-27T13:26:58.575Z,98283.31
2022-12-27T13:32:19.048Z,98277.53
2022-12-27T13:37:45.595Z,98276.00
2022-12-27T13:43:16.798Z,98268.53
2022-12-27T13:48:39.479Z,98271.72
2022-12-27T13:54:14.141Z,98273.25
2022-12-27T13:59:30.861Z,98279.78
2022-12-27T14:05:09.519Z,98283.34
2022-12-27T14:10:29.750Z,98274.53
2022-12-27T14:15:37.287Z,98285.44
2022-12-27T14:21:11.457Z,98290.00
2022-12-27T14:26:28.919Z,98302.75
2022-12-27T14:31:49.276Z,98292.91
2022-12-27T14:37:12.069Z,98310.63
2022-12-27T14:42:46.457Z,98310.72
2022-12-27T14:47:57.354Z,98322.50
2022-12-27T14:53:36.426Z,98319.75
2022-12-27T14:59:07.503Z,98315.22
2022-12-27T15:04:28.149Z,98303.53
2022-12-27T15:09:34.411Z,98302.38
2022-12-27T15:14:58.025Z,98304.50
2022-12-27T15:20:31.380Z,98308.28
2022-12-27T15:26:00.809Z,98308.31
2022-12-27T15:31:16.142Z,98309.53
2022-12-27T15:36:21.104Z,98309.97
2022-12-27T15:41:46.899Z,98307.03
2022-12-27T15:47:25.986Z,98297.00
2022-12-27T15:52:33.831Z,98301.38
2022-12-27T15:57:53.896Z,98296.13
2022-12-27T16:02:59.158Z,98294.81
2022-12-27T16:08:00.877Z,98294.78
2022-12-27T16:13:11.671Z,98302.25
2022-12-27T16:18:19.258Z,98298.03
2022-12-27T16:23:24.858Z,98285.53
2022-12-27T16:28:29.174Z,98289.88
2022-12-27T16:33:37.497Z,98292.78
2022-12-27T16:38:47.786Z,98286.47
2022-12-27T16:43:52.461Z,98290.16
2022-12-27T16:49:44.982Z,98290.66
2022-12-27T16:55:22.672Z,98289.75
2022-12-27T17:00:43.412Z,98269.97
2022-12-27T17:06:21.449Z,98263.06
2022-12-27T17:11:27.416Z,98274.75
2022-12-27T17:16:45.731Z,98272.16
2022-12-27T17:21:54.711Z,98277.03
2022-12-27T17:27:12.851Z,98262.88
2022-12-27T17:32:32.929Z,98275.00
2022-12-27T17:37:59.401Z,98257.88
2022-12-27T17:43:35.143Z,98273.34
2022-12-27T17:48:37.214Z,98261.28
2022-12-27T17:54:11.132Z,98258.25
2022-12-27T17:59:27.821Z,98252.75
2022-12-27T18:04:39.566Z,98245.13
2022-12-27T18:09:44.726Z,98255.66
2022-12-27T18:14:55.611Z,98235.09
2022-12-27T18:19:57.390Z,98246.53
2022-12-27T18:25:00.988Z,98244.69
2022-12-27T18:30:02.766Z,98223.69
2022-12-27T18:35:04.966Z,98222.38
2022-12-27T18:40:07.285Z,98227.59
2022-12-27T18:45:31.128Z,98229.50
2022-12-27T18:50:34.800Z,98224.41
2022-12-27T18:55:36.710Z,98221.13
2022-12-27T19:00:51.393Z,98222.38
2022-12-27T19:06:02.178Z,98225.25
2022-12-27T19:11:05.209Z,98216.25
2022-12-27T19:16:07.419Z,98207.13
2022-12-27T19:21:14.994Z,98191.03
2022-12-27T19:26:16.600Z,98188.72
2022-12-27T19:31:21.922Z,98187.31
2022-12-27T19:36:37.903Z,98183.41
2022-12-27T19:41:39.697Z,98185.25
2022-12-27T19:46:41.415Z,98177.94
2022-12-27T19:51:43.292Z,98177.53
2022-12-27T19:56:45.796Z,98184.50
2022-12-27T20:01:48.355Z,98191.72
2022-12-27T20:06:50.198Z,98187.59
2022-12-27T20:11:51.793Z,98180.66
2022-12-27T20:16:53.481Z,98182.66
2022-12-27T20:21:55.335Z,98180.78
2022-12-27T20:26:56.994Z,98186.84
2022-12-27T20:31:59.200Z,98177.66
2022-12-27T20:37:00.955Z,98165.94
2022-12-27T20:42:02.701Z,98179.84
2022-12-27T20:47:05.016Z,98168.69
2022-12-27T20:52:06.786Z,98170.50
2022-12-27T20:57:08.617Z,98168.06
2022-12-27T21:02:14.221Z,98166.00
2022-12-27T21:07:16.100Z,98146.84
2022-12-27T21:12:17.781Z,98146.06
2022-12-27T21:17:19.426Z,98143.22
2022-12-27T21:22:21.278Z,98141.94
2022-12-27T21:27:22.927Z,98136.16
2022-12-27T21:32:24.743Z,98129.88
2022-12-27T21:37:26.448Z,98129.91
2022-12-27T21:42:28.238Z,98123.75
2022-12-27T21:47:31.551Z,98130.06
2022-12-27T21:52:33.312Z,98134.72
2022-12-27T21:57:35.024Z,98128.56
2022-12-27T22:02:36.872Z,98120.44
2022-12-27T22:07:41.529Z,98104.91
2022-12-27T22:12:43.471Z,98109.53
2022-12-27T22:17:45.177Z,98106.19
2022-12-27T22:22:47.385Z,98115.63
2022-12-27T22:27:49.020Z,98115.44
2022-12-27T22:32:52.297Z,98106.94
2022-12-27T22:37:53.940Z,98107.59
2022-12-27T22:42:56.265Z,98099.22
2022-12-27T22:47:58.042Z,98099.75
2022-12-27T22:52:59.744Z,98094.00
2022-12-27T22:58:01.313Z,98090.34
2022-12-27T23:03:03.425Z,98074.75
2022-12-27T23:08:07.124Z,98079.72
2022-12-27T23:13:08.901Z,98084.97
2022-12-27T23:18:10.629Z,98075.31
2022-12-27T23:23:12.339Z,98073.19
2022-12-27T23:28:14.416Z,98068.66
2022-12-27T23:33:16.250Z,98061.91
2022-12-27T23:38:17.991Z,98063.13
2022-12-27T23:43:51.149Z,98065.63
2022-12-27T23:48:42.403Z,98050.78
2022-12-27T23:53:44.764Z,98049.09
2022-12-27T23:58:47.512Z,98044.63
